Time;durP1;ratioP1;P1;durP2;ratioP2;P2;SDS_P1;SDS_P2;PMS_P1;PMS_P2;Temp;Humidity;BMP_temperature;BMP_pressure;BME280_temperature;BME280_humidity;BME280_pressure;Samples;Min_cycle;Max_cycle;Signal;HPM_P1;HPM_P2
2021/06/15 00:01:21;;;;;;;7.07;3.85;;;20.80;93.10;;;;;;5012710;28;20060;-76
2021/06/15 00:03:47;;;;;;;9.15;3.50;;;20.80;93.10;;;;;;5012518;28;20018;-76
2021/06/15 00:06:13;;;;;;;10.18;3.92;;;20.90;92.90;;;;;;5012285;28;20033;-77
2021/06/15 00:08:38;;;;;;;9.70;3.83;;;20.90;92.90;;;;;;5010918;28;20488;-77
2021/06/15 00:11:04;;;;;;;9.82;4.75;;;20.90;93.00;;;;;;5011973;28;20034;-76
2021/06/15 00:13:30;;;;;;;16.08;3.88;;;20.90;93.00;;;;;;5011963;28;20021;-76
2021/06/15 00:15:56;;;;;;;9.88;3.63;;;20.90;92.80;;;;;;5012594;28;20030;-77
2021/06/15 00:18:22;;;;;;;14.13;4.00;;;20.90;92.70;;;;;;5012611;28;20026;-77
2021/06/15 00:20:48;;;;;;;7.13;3.20;;;20.90;92.70;;;;;;5012640;28;20020;-77
2021/06/15 00:23:14;;;;;;;7.63;3.63;;;20.90;92.80;;;;;;5012536;28;20101;-76
2021/06/15 00:25:40;;;;;;;10.88;4.30;;;20.80;92.90;;;;;;5012462;28;20054;-76
2021/06/15 00:28:06;;;;;;;5.47;3.05;;;20.80;92.80;;;;;;4994936;28;20418;-76
2021/06/15 00:30:32;;;;;;;11.38;3.70;;;20.80;92.80;;;;;;5012266;28;20022;-74
2021/06/15 00:32:58;;;;;;;25.67;4.10;;;20.80;92.80;;;;;;5012242;28;20030;-77
2021/06/15 00:35:24;;;;;;;7.28;3.95;;;20.80;93.00;;;;;;5012231;28;20037;-75
2021/06/15 00:37:51;;;;;;;12.00;4.53;;;20.70;92.80;;;;;;5012122;28;20018;-77
2021/06/15 00:40:19;;;;;;;8.85;3.63;;;20.80;92.70;;;;;;5012390;28;20083;-76
2021/06/15 00:42:45;;;;;;;6.25;3.72;;;20.70;92.70;;;;;;5012165;28;20022;-75
2021/06/15 00:45:13;;;;;;;11.13;4.72;;;20.70;92.90;;;;;;5012390;28;20043;-75
2021/06/15 00:47:44;;;;;;;11.23;3.90;;;20.70;92.80;;;;;;5011929;28;20030;-75
2021/06/15 00:50:10;;;;;;;5.68;3.42;;;20.70;92.80;;;;;;5013750;28;20049;-76
2021/06/15 00:52:36;;;;;;;10.40;3.70;;;20.70;92.80;;;;;;5000986;28;20032;-76
2021/06/15 00:55:02;;;;;;;15.23;3.53;;;20.70;92.70;;;;;;5018672;28;20037;-77
2021/06/15 00:57:28;;;;;;;17.50;3.92;;;20.70;92.70;;;;;;5018389;28;20157;-78
2021/06/15 00:59:55;;;;;;;7.35;3.63;;;20.70;92.80;;;;;;5019222;28;20510;-76
2021/06/15 01:02:21;;;;;;;8.70;3.47;;;20.70;92.60;;;;;;5019164;28;20022;-74
2021/06/15 01:04:47;;;;;;;15.93;3.28;;;20.60;92.50;;;;;;5018857;28;20080;-75
2021/06/15 01:07:13;;;;;;;9.13;3.60;;;20.60;92.40;;;;;;5019719;28;20057;-75
2021/06/15 01:09:53;;;;;;;9.65;3.83;;;20.60;92.40;;;;;;5018419;28;20057;-74
2021/06/15 01:12:40;;;;;;;6.28;3.70;;;20.70;92.30;;;;;;5018402;28;20101;-73
2021/06/15 01:15:19;;;;;;;9.18;3.58;;;20.60;92.20;;;;;;5018497;28;20033;-75
2021/06/15 01:17:44;;;;;;;10.35;3.97;;;20.60;92.10;;;;;;5006404;28;20029;-75
2021/06/15 01:20:16;;;;;;;9.30;3.78;;;20.50;92.20;;;;;;5018612;28;20382;-76
2021/06/15 01:22:54;;;;;;;7.13;3.72;;;20.50;92.40;;;;;;5018375;28;20022;-75
2021/06/15 01:25:28;;;;;;;7.25;3.35;;;20.50;92.30;;;;;;5018410;28;20030;-74
2021/06/15 01:28:13;;;;;;;9.07;3.30;;;20.50;92.20;;;;;;5006156;28;20474;-74
2021/06/15 01:31:03;;;;;;;8.25;4.32;;;20.50;92.20;;;;;;5018048;28;20026;-75
2021/06/15 01:33:31;;;;;;;11.32;3.83;;;20.40;92.20;;;;;;5017874;28;20021;-74
2021/06/15 01:35:58;;;;;;;21.48;4.38;;;20.40;92.30;;;;;;5018160;28;20391;-75
2021/06/15 01:38:32;;;;;;;12.38;4.22;;;20.40;92.40;;;;;;5018408;28;20018;-74
2021/06/15 01:41:13;;;;;;;10.73;3.97;;;20.40;92.30;;;;;;5018631;28;20050;-75
2021/06/15 01:43:50;;;;;;;21.08;5.82;;;20.30;92.40;;;;;;5018432;28;20072;-74
2021/06/15 01:46:20;;;;;;;6.78;3.50;;;20.30;92.50;;;;;;5018013;28;20045;-75
2021/06/15 01:48:55;;;;;;;7.55;3.60;;;20.30;92.50;;;;;;5017910;28;20054;-74
2021/06/15 01:51:22;;;;;;;7.65;3.60;;;20.30;92.40;;;;;;5018091;28;20095;-74
2021/06/15 01:53:57;;;;;;;7.97;3.45;;;20.30;92.30;;;;;;5018380;28;20209;-74
2021/06/15 01:56:26;;;;;;;9.65;3.85;;;20.30;92.20;;;;;;5018183;28;20017;-75
2021/06/15 01:58:54;;;;;;;8.18;3.47;;;20.20;92.30;;;;;;5016448;28;20486;-74
2021/06/15 02:01:21;;;;;;;10.57;3.83;;;20.20;92.40;;;;;;5016988;28;20026;-74
2021/06/15 02:03:48;;;;;;;22.88;4.88;;;20.20;92.50;;;;;;5013800;28;20108;-74
2021/06/15 02:06:19;;;;;;;7.15;3.17;;;20.20;92.50;;;;;;5014609;28;20038;-73
2021/06/15 02:08:49;;;;;;;5.75;3.40;;;20.20;92.50;;;;;;5014003;28;20022;-74
2021/06/15 02:11:16;;;;;;;7.43;3.10;;;20.10;92.50;;;;;;5014626;28;20037;-75
2021/06/15 02:13:45;;;;;;;11.05;3.63;;;20.10;92.60;;;;;;5014131;28;20021;-77
2021/06/15 02:16:12;;;;;;;13.43;4.10;;;20.10;92.90;;;;;;5014485;28;20033;-75
2021/06/15 02:18:42;;;;;;;7.05;3.72;;;20.10;92.50;;;;;;4997063;28;20053;-78
2021/06/15 02:21:11;;;;;;;5.82;3.78;;;20.10;92.60;;;;;;5014428;28;20022;-75
2021/06/15 02:23:39;;;;;;;9.45;3.60;;;20.10;92.50;;;;;;5014452;28;20112;-76
2021/06/15 02:26:11;;;;;;;12.70;3.63;;;20.10;92.50;;;;;;5014371;28;20536;-75
2021/06/15 02:28:37;;;;;;;4.97;3.40;;;20.10;92.40;;;;;;5014380;28;20026;-74
2021/06/15 02:31:09;;;;;;;10.20;3.85;;;20.10;92.30;;;;;;5013370;28;20025;-74
2021/06/15 02:33:41;;;;;;;10.90;3.88;;;20.10;92.50;;;;;;5013288;28;20026;-78
2021/06/15 02:36:18;;;;;;;16.67;3.42;;;20.10;92.40;;;;;;5013646;28;20049;-75
2021/06/15 02:38:53;;;;;;;5.30;3.38;;;20.10;92.50;;;;;;5013212;28;20033;-76
2021/06/15 02:41:20;;;;;;;7.60;3.58;;;20.00;92.70;;;;;;5013671;28;20034;-74
2021/06/15 02:43:49;;;;;;;10.13;3.80;;;20.00;92.70;;;;;;5013719;28;20026;-75
2021/06/15 02:46:17;;;;;;;10.70;3.65;;;19.90;92.80;;;;;;5013819;28;20029;-77
2021/06/15 02:48:50;;;;;;;13.15;3.15;;;19.90;92.90;;;;;;5013399;28;20038;-76
2021/06/15 02:51:16;;;;;;;5.10;3.15;;;19.90;92.90;;;;;;4996282;28;20105;-75
2021/06/15 02:53:59;;;;;;;13.27;3.90;;;19.90;92.90;;;;;;5013712;28;20068;-74
2021/06/15 02:56:29;;;;;;;8.05;3.38;;;19.90;92.90;;;;;;5013601;28;20099;-80
2021/06/15 02:58:55;;;;;;;6.45;3.65;;;19.90;93.00;;;;;;5013942;28;20018;-75
2021/06/15 03:01:21;;;;;;;13.07;3.38;;;19.80;93.10;;;;;;5013663;28;20029;-78
2021/06/15 03:03:46;;;;;;;7.15;3.20;;;19.80;93.10;;;;;;5012532;28;20371;-77
2021/06/15 03:06:12;;;;;;;6.95;3.20;;;19.80;93.10;;;;;;5013231;28;20045;-74
2021/06/15 03:08:39;;;;;;;11.73;3.88;;;19.70;93.00;;;;;;5013063;28;20029;-75
2021/06/15 03:11:06;;;;;;;15.43;3.50;;;19.70;92.90;;;;;;5013282;28;20168;-75
2021/06/15 03:13:38;;;;;;;8.18;3.42;;;19.80;92.80;;;;;;5012845;28;20026;-75
2021/06/15 03:16:06;;;;;;;20.13;3.35;;;19.90;92.80;;;;;;5013382;28;20504;-75
2021/06/15 03:19:02;;;;;;;10.93;3.97;;;19.80;92.80;;;;;;4995341;28;20026;-80
2021/06/15 03:21:32;;;;;;;7.88;3.30;;;19.80;92.90;;;;;;5013112;28;20112;-75
2021/06/15 03:24:02;;;;;;;7.38;3.20;;;19.80;92.90;;;;;;4995265;28;20064;-75
2021/06/15 03:26:47;;;;;;;7.80;3.67;;;19.80;92.90;;;;;;5012901;28;20072;-75
2021/06/15 03:29:19;;;;;;;11.82;3.70;;;19.90;92.90;;;;;;5012739;28;20463;-78
2021/06/15 03:31:45;;;;;;;5.88;3.65;;;19.90;92.80;;;;;;5013011;28;20065;-76
2021/06/15 03:34:18;;;;;;;14.98;3.90;;;19.90;92.70;;;;;;5012724;28;20014;-74
2021/06/15 03:36:46;;;;;;;8.18;3.25;;;19.90;92.50;;;;;;5012900;28;20034;-81
2021/06/15 03:39:12;;;;;;;12.80;3.70;;;19.90;92.50;;;;;;5012797;28;20567;-74
2021/06/15 03:41:40;;;;;;;11.77;4.10;;;19.90;92.70;;;;;;5012949;28;20029;-74
2021/06/15 03:44:08;;;;;;;6.13;3.58;;;19.90;92.60;;;;;;5014078;28;20022;-76
2021/06/15 03:46:35;;;;;;;8.80;3.20;;;19.90;92.70;;;;;;5012887;28;20026;-75
2021/06/15 03:49:03;;;;;;;6.63;3.33;;;19.90;92.80;;;;;;5012824;28;20356;-76
2021/06/15 03:51:33;;;;;;;8.68;3.33;;;19.90;92.50;;;;;;5012493;28;20513;-74
2021/06/15 03:54:08;;;;;;;10.50;3.72;;;20.00;92.70;;;;;;5012559;28;20037;-76
2021/06/15 03:56:36;;;;;;;10.13;3.30;;;19.90;92.70;;;;;;5012849;28;20032;-76
2021/06/15 03:59:04;;;;;;;6.25;3.53;;;20.00;92.70;;;;;;5012687;28;20029;-75
2021/06/15 04:01:32;;;;;;;10.27;3.55;;;20.00;92.60;;;;;;5012242;28;20022;-75
2021/06/15 04:03:59;;;;;;;12.27;3.80;;;20.00;93.00;;;;;;5012593;28;20021;-77
2021/06/15 04:06:26;;;;;;;9.30;3.80;;;20.00;92.90;;;;;;5012282;28;20387;-75
2021/06/15 04:08:52;;;;;;;8.82;3.78;;;20.00;92.90;;;;;;5012495;28;20443;-76
2021/06/15 04:11:19;;;;;;;17.60;3.95;;;20.00;92.90;;;;;;5012319;28;20475;-75
2021/06/15 04:13:45;;;;;;;15.95;4.15;;;20.00;92.80;;;;;;5011956;28;20147;-76
2021/06/15 04:16:14;;;;;;;10.48;3.67;;;20.00;92.90;;;;;;5012047;28;20467;-76
2021/06/15 04:18:45;;;;;;;8.40;3.75;;;20.10;93.30;;;;;;5011898;28;20022;-76
2021/06/15 04:21:12;;;;;;;9.07;4.03;;;20.20;92.50;;;;;;5011982;28;20021;-75
2021/06/15 04:23:45;;;;;;;8.23;3.50;;;20.20;92.90;;;;;;5009947;28;20026;-76
2021/06/15 04:26:11;;;;;;;8.00;3.65;;;20.30;92.40;;;;;;5011067;28;20034;-76
2021/06/15 04:28:38;;;;;;;7.63;3.75;;;20.30;92.50;;;;;;5012003;28;20017;-75
2021/06/15 04:31:05;;;;;;;10.43;3.15;;;20.40;92.50;;;;;;5011718;28;20501;-77
2021/06/15 04:33:32;;;;;;;8.00;3.85;;;20.40;92.40;;;;;;5012008;28;20034;-76
2021/06/15 04:36:02;;;;;;;8.05;3.30;;;20.50;92.50;;;;;;5012440;28;20129;-75
2021/06/15 04:38:42;;;;;;;8.75;3.28;;;20.50;92.20;;;;;;5011804;28;20076;-76
2021/06/15 04:41:25;;;;;;;12.00;3.25;;;20.50;92.50;;;;;;5011566;28;20026;-75
2021/06/15 04:44:15;;;;;;;6.10;3.35;;;20.50;92.40;;;;;;5008798;28;20072;-76
2021/06/15 04:47:24;;;;;;;5.53;3.20;;;20.60;92.50;;;;;;5011729;28;20025;-75
2021/06/15 04:50:27;;;;;;;15.85;3.83;;;20.60;92.30;;;;;;5004141;28;20077;-76
2021/06/15 04:52:54;;;;;;;8.88;4.20;;;20.60;92.40;;;;;;5004457;28;20025;-74
2021/06/15 04:55:24;;;;;;;7.15;3.25;;;20.60;92.30;;;;;;5011786;28;20391;-76
2021/06/15 04:57:52;;;;;;;11.40;3.30;;;20.60;92.50;;;;;;5011807;28;20021;-75
2021/06/15 05:00:21;;;;;;;8.23;3.70;;;20.70;92.40;;;;;;5011748;28;20026;-74
2021/06/15 05:02:48;;;;;;;10.93;3.40;;;20.80;92.20;;;;;;5011452;28;20025;-76
2021/06/15 05:05:15;;;;;;;8.55;3.72;;;20.80;92.30;;;;;;5011448;28;20398;-76
2021/06/15 05:07:41;;;;;;;10.10;3.60;;;20.80;92.60;;;;;;5011399;28;20398;-76
2021/06/15 05:10:09;;;;;;;13.43;3.80;;;20.80;92.10;;;;;;5011400;28;20593;-77
2021/06/15 05:12:40;;;;;;;11.27;3.60;;;20.80;92.30;;;;;;5011328;28;20087;-78
2021/06/15 05:15:08;;;;;;;9.50;3.80;;;20.80;92.40;;;;;;5011363;28;20038;-77
2021/06/15 05:17:35;;;;;;;15.60;3.58;;;20.80;92.30;;;;;;5011457;28;20025;-77
2021/06/15 05:20:05;;;;;;;12.05;4.13;;;20.90;92.50;;;;;;5011568;28;20482;-78
2021/06/15 05:22:34;;;;;;;9.10;3.70;;;20.90;92.50;;;;;;5010360;28;20037;-78
2021/06/15 05:25:02;;;;;;;9.88;4.07;;;20.90;92.60;;;;;;5010759;28;20052;-77
2021/06/15 05:27:31;;;;;;;7.43;3.92;;;21.00;92.40;;;;;;4993825;28;20018;-77
2021/06/15 05:29:57;;;;;;;14.00;3.60;;;21.00;92.50;;;;;;5011487;28;20032;-77
2021/06/15 05:32:22;;;;;;;13.52;3.90;;;21.00;92.30;;;;;;5018877;28;20097;-79
2021/06/15 05:34:49;;;;;;;14.70;4.03;;;21.10;92.40;;;;;;5010609;28;20049;-78
2021/06/15 05:37:15;;;;;;;8.60;3.88;;;21.20;92.50;;;;;;5016503;28;20500;-78
2021/06/15 05:39:41;;;;;;;13.38;4.43;;;21.20;92.40;;;;;;5014375;28;20521;-78
2021/06/15 05:42:07;;;;;;;8.20;3.92;;;21.20;92.30;;;;;;5014533;28;20101;-77
2021/06/15 05:44:36;;;;;;;13.60;4.07;;;21.30;92.60;;;;;;5014586;28;20538;-79
2021/06/15 05:47:02;;;;;;;6.93;3.85;;;21.30;92.40;;;;;;5014969;28;20022;-79
2021/06/15 05:49:29;;;;;;;7.53;3.90;;;21.40;92.80;;;;;;5014075;28;20041;-81
2021/06/15 05:52:01;;;;;;;9.05;4.00;;;21.30;92.70;;;;;;5013169;28;20097;-78
2021/06/15 05:54:27;;;;;;;9.75;4.18;;;21.40;92.40;;;;;;5014465;28;20028;-77
2021/06/15 05:56:53;;;;;;;12.40;4.10;;;21.50;92.50;;;;;;5014022;28;20025;-78
2021/06/15 05:59:19;;;;;;;11.68;3.63;;;21.50;92.50;;;;;;5014713;28;20236;-77
2021/06/15 06:01:45;;;;;;;11.38;3.72;;;21.60;92.70;;;;;;5014524;28;20021;-78
2021/06/15 06:04:12;;;;;;;14.77;3.70;;;21.70;92.70;;;;;;5014713;28;20037;-78
2021/06/15 06:09:22;;;;;;;10.20;3.47;;;21.80;92.30;;;;;;5014288;28;20032;-79
2021/06/15 06:11:48;;;;;;;10.52;4.00;;;21.80;92.50;;;;;;5014718;28;20021;-79
2021/06/15 06:14:14;;;;;;;10.82;3.90;;;21.90;92.10;;;;;;5014470;28;20042;-77
2021/06/15 06:16:42;;;;;;;14.85;4.15;;;21.90;92.40;;;;;;5014444;28;20022;-80
2021/06/15 06:19:08;;;;;;;14.40;4.93;;;22.10;92.30;;;;;;5014928;28;20461;-78
2021/06/15 06:21:35;;;;;;;23.63;5.10;;;22.10;92.40;;;;;;5007165;28;20083;-76
2021/06/15 06:24:03;;;;;;;24.02;5.78;;;22.20;92.20;;;;;;5015316;28;20030;-77
2021/06/15 06:26:29;;;;;;;49.90;7.07;;;22.20;92.20;;;;;;5014311;28;20030;-77
2021/06/15 06:28:55;;;;;;;28.65;6.00;;;22.30;92.30;;;;;;5014262;28;20037;-76
2021/06/15 06:31:21;;;;;;;18.65;5.75;;;22.30;92.10;;;;;;5014428;28;20022;-77
2021/06/15 06:33:47;;;;;;;11.80;4.07;;;22.30;92.00;;;;;;4996332;28;20497;-76
2021/06/15 06:36:13;;;;;;;12.35;4.85;;;22.50;91.60;;;;;;5014341;28;20041;-77
2021/06/15 06:38:39;;;;;;;10.40;4.28;;;22.60;91.70;;;;;;5013711;28;20032;-77
2021/06/15 06:41:05;;;;;;;10.45;3.92;;;22.60;91.80;;;;;;5013549;28;20038;-77
2021/06/15 06:43:31;;;;;;;12.98;4.13;;;22.60;91.90;;;;;;5013482;28;20068;-77
2021/06/15 06:45:57;;;;;;;14.13;4.32;;;22.50;92.10;;;;;;5013182;28;20033;-77
2021/06/15 06:48:23;;;;;;;11.45;4.15;;;22.50;92.10;;;;;;5012468;28;20482;-77
2021/06/15 06:50:49;;;;;;;10.18;3.90;;;22.40;92.30;;;;;;5013310;28;20113;-76
2021/06/15 06:53:15;;;;;;;14.93;4.45;;;22.50;92.40;;;;;;5013411;28;20038;-76
2021/06/15 06:55:40;;;;;;;14.70;4.28;;;22.60;92.10;;;;;;5013282;28;20030;-76
2021/06/15 06:58:06;;;;;;;12.50;3.95;;;22.80;91.90;;;;;;5013607;28;20493;-75
2021/06/15 07:00:33;;;;;;;9.25;4.45;;;22.80;91.70;;;;;;5013062;28;20360;-76
2021/06/15 07:02:59;;;;;;;17.52;5.63;;;22.90;91.70;;;;;;5012408;28;20018;-77
2021/06/15 07:05:25;;;;;;;10.88;4.10;;;23.00;91.60;;;;;;5011785;28;20018;-76
2021/06/15 07:07:52;;;;;;;16.70;4.07;;;23.10;91.40;;;;;;5012864;28;20105;-77
2021/06/15 07:10:20;;;;;;;19.20;5.90;;;23.20;91.50;;;;;;5012836;28;20030;-77
2021/06/15 07:12:47;;;;;;;20.38;5.03;;;23.40;91.70;;;;;;5012716;28;20041;-77
2021/06/15 07:15:13;;;;;;;30.50;6.00;;;23.40;91.60;;;;;;5011338;28;20161;-77
2021/06/15 07:17:38;;;;;;;15.55;4.55;;;23.50;91.00;;;;;;5012487;28;20097;-77
2021/06/15 07:20:05;;;;;;;17.10;4.80;;;23.50;90.60;;;;;;5009760;28;20030;-77
2021/06/15 07:22:31;;;;;;;65.40;10.20;;;23.50;90.40;;;;;;5012890;28;20014;-76
2021/06/15 07:24:57;;;;;;;23.75;5.78;;;23.50;90.90;;;;;;4989907;28;20044;-77
2021/06/15 07:27:23;;;;;;;22.10;5.50;;;23.50;90.90;;;;;;5010833;28;20022;-77
2021/06/15 07:29:49;;;;;;;12.20;4.75;;;23.60;91.20;;;;;;4993206;28;20035;-77
2021/06/15 07:32:15;;;;;;;16.80;5.00;;;23.60;91.40;;;;;;5011462;28;20479;-76
2021/06/15 07:34:40;;;;;;;8.23;4.03;;;23.80;91.60;;;;;;5011465;28;20045;-77
2021/06/15 07:37:06;;;;;;;11.60;4.25;;;23.90;91.80;;;;;;5012682;28;20025;-77
2021/06/15 07:39:33;;;;;;;11.00;3.95;;;24.10;92.00;;;;;;5011846;28;20496;-76
2021/06/15 07:41:59;;;;;;;14.52;3.83;;;24.20;91.80;;;;;;5009055;28;20105;-75
2021/06/15 07:44:25;;;;;;;12.98;4.53;;;24.30;91.70;;;;;;5014123;28;20109;-76
2021/06/15 07:46:53;;;;;;;9.57;3.90;;;24.50;91.80;;;;;;5011550;28;20029;-76
2021/06/15 07:49:19;;;;;;;12.55;4.25;;;24.60;91.70;;;;;;5011657;28;20073;-77
2021/06/15 07:51:44;;;;;;;10.38;3.53;;;24.80;91.80;;;;;;5011491;28;20057;-76
2021/06/15 07:54:10;;;;;;;12.23;4.15;;;24.90;91.70;;;;;;5011049;28;20100;-76
2021/06/15 07:56:36;;;;;;;15.27;4.03;;;25.00;91.60;;;;;;5011404;28;20519;-75
2021/06/15 07:59:01;;;;;;;9.82;4.20;;;25.20;91.40;;;;;;5009184;28;20034;-76
2021/06/15 08:01:27;;;;;;;8.02;4.13;;;25.40;91.30;;;;;;5010726;28;20034;-77
2021/06/15 08:03:53;;;;;;;7.80;3.90;;;25.50;91.30;;;;;;5011373;28;20047;-79
2021/06/15 08:06:18;;;;;;;6.78;3.63;;;25.50;91.40;;;;;;5010614;28;20040;-77
2021/06/15 08:08:44;;;;;;;14.70;3.83;;;25.50;91.70;;;;;;5010321;28;20041;-79
2021/06/15 08:11:10;;;;;;;10.30;4.38;;;25.60;92.20;;;;;;5012753;28;20033;-80
2021/06/15 08:13:36;;;;;;;11.02;4.05;;;25.70;92.30;;;;;;5013953;28;20030;-80
2021/06/15 08:16:02;;;;;;;9.35;3.58;;;25.90;92.50;;;;;;5011816;28;20038;-80
2021/06/15 08:18:28;;;;;;;15.68;4.13;;;25.80;92.10;;;;;;4993646;28;20509;-79
2021/06/15 08:20:54;;;;;;;13.38;3.42;;;25.80;92.30;;;;;;5012036;28;20062;-80
2021/06/15 08:23:22;;;;;;;8.48;3.30;;;25.80;92.40;;;;;;5011678;28;20034;-79
2021/06/15 08:25:47;;;;;;;10.77;3.50;;;25.90;93.10;;;;;;5011804;28;20101;-79
2021/06/15 08:28:13;;;;;;;7.95;3.63;;;25.70;92.80;;;;;;5011350;28;20089;-81
2021/06/15 08:30:40;;;;;;;9.90;4.40;;;25.70;92.50;;;;;;5011431;28;20026;-80
2021/06/15 08:33:06;;;;;;;7.55;4.00;;;25.70;92.50;;;;;;5011497;28;20084;-80
2021/06/15 08:35:32;;;;;;;17.80;3.97;;;25.70;92.70;;;;;;5011582;28;20125;-79
2021/06/15 08:37:58;;;;;;;9.15;4.40;;;25.70;92.80;;;;;;5011342;28;20060;-78
2021/06/15 08:40:24;;;;;;;9.60;4.32;;;25.80;92.60;;;;;;5011952;28;20057;-79
2021/06/15 08:42:50;;;;;;;13.68;4.28;;;25.80;92.60;;;;;;5011345;28;20080;-77
2021/06/15 08:45:17;;;;;;;6.28;3.72;;;25.90;92.40;;;;;;5011048;28;20105;-77
2021/06/15 08:47:46;;;;;;;9.25;3.70;;;26.00;92.00;;;;;;5008524;28;20026;-77
2021/06/15 08:50:14;;;;;;;14.55;3.75;;;26.30;92.00;;;;;;5011489;28;20065;-78
2021/06/15 08:52:40;;;;;;;11.02;3.95;;;26.50;91.30;;;;;;5011936;28;20025;-78
2021/06/15 08:55:07;;;;;;;7.15;3.25;;;26.70;91.40;;;;;;5011567;28;20057;-77
2021/06/15 08:57:35;;;;;;;7.38;3.78;;;26.90;91.20;;;;;;5011114;28;20026;-78
2021/06/15 09:00:02;;;;;;;8.18;3.95;;;27.10;90.80;;;;;;5013527;28;20018;-78
2021/06/15 09:02:28;;;;;;;10.68;4.13;;;27.40;90.60;;;;;;5011132;28;20383;-78
2021/06/15 09:04:54;;;;;;;10.38;4.63;;;27.80;90.10;;;;;;5007406;28;20034;-78
2021/06/15 09:07:20;;;;;;;10.77;4.20;;;27.90;90.00;;;;;;5011209;28;20036;-77
2021/06/15 09:09:49;;;;;;;8.60;3.80;;;27.90;89.50;;;;;;5010918;28;20030;-77
2021/06/15 09:12:23;;;;;;;10.68;3.47;;;28.20;89.30;;;;;;5012507;28;20025;-78
2021/06/15 09:14:53;;;;;;;7.72;3.75;;;28.40;89.30;;;;;;5015857;28;20036;-79
2021/06/15 09:17:28;;;;;;;12.33;4.37;;;28.70;89.10;;;;;;5021649;28;20110;-79
2021/06/15 09:19:56;;;;;;;13.85;4.07;;;28.90;88.30;;;;;;5015592;28;20112;-80
2021/06/15 09:22:31;;;;;;;11.20;3.58;;;28.90;88.50;;;;;;5014547;28;20033;-79
2021/06/15 09:24:58;;;;;;;9.82;3.33;;;28.90;88.40;;;;;;4996982;28;20018;-78
2021/06/15 09:27:32;;;;;;;13.23;3.63;;;28.90;88.40;;;;;;5013754;28;20153;-80
2021/06/15 09:29:59;;;;;;;7.80;3.95;;;28.70;88.90;;;;;;5011714;28;20111;-78
2021/06/15 09:32:26;;;;;;;10.15;4.00;;;28.60;88.70;;;;;;5012913;28;20029;-78
2021/06/15 09:34:52;;;;;;;10.43;3.65;;;28.50;88.90;;;;;;5013781;28;20079;-78
2021/06/15 09:37:45;;;;;;;10.45;3.40;;;28.30;88.80;;;;;;5014767;28;20101;-78
2021/06/15 09:40:21;;;;;;;8.05;3.25;;;28.10;89.20;;;;;;5015468;28;20034;-80
2021/06/15 09:43:03;;;;;;;11.20;3.72;;;27.90;90.00;;;;;;5015667;28;20022;-78
2021/06/15 09:45:29;;;;;;;10.50;3.40;;;27.80;90.10;;;;;;5014396;28;20471;-78
2021/06/15 09:48:27;;;;;;;12.45;4.30;;;27.70;90.20;;;;;;5014218;28;20044;-78
2021/06/15 09:50:56;;;;;;;6.78;3.00;;;27.50;90.30;;;;;;5015117;28;20025;-79
2021/06/15 09:53:25;;;;;;;11.20;3.65;;;27.40;90.80;;;;;;5014695;28;20029;-78
2021/06/15 09:55:52;;;;;;;16.05;3.63;;;27.20;90.70;;;;;;5015023;28;20041;-77
2021/06/15 09:58:18;;;;;;;11.25;3.25;;;27.20;91.00;;;;;;5011198;28;20030;-79
2021/06/15 10:00:54;;;;;;;17.08;3.67;;;27.20;91.00;;;;;;5013841;28;20029;-80
2021/06/15 10:03:20;;;;;;;10.80;3.33;;;27.20;90.90;;;;;;5012847;28;20029;-77
2021/06/15 10:05:47;;;;;;;10.57;3.75;;;27.30;90.70;;;;;;5013472;28;20030;-78
2021/06/15 10:08:13;;;;;;;12.07;4.18;;;27.30;90.60;;;;;;5012888;28;20045;-78
2021/06/15 10:10:44;;;;;;;16.58;3.83;;;27.20;90.90;;;;;;5012866;28;20254;-77
2021/06/15 10:13:11;;;;;;;14.68;4.10;;;27.10;90.70;;;;;;5013252;28;20525;-77
2021/06/15 10:15:39;;;;;;;15.82;3.90;;;27.10;91.00;;;;;;5013482;28;20073;-80
2021/06/15 10:18:06;;;;;;;12.77;3.45;;;27.10;91.20;;;;;;5013717;28;20060;-78
2021/06/15 10:20:34;;;;;;;14.68;3.55;;;27.10;91.10;;;;;;5013117;28;20044;-78
2021/06/15 10:23:01;;;;;;;12.48;3.67;;;27.10;91.00;;;;;;5012083;28;20014;-77
2021/06/15 10:25:29;;;;;;;6.82;3.20;;;26.90;91.30;;;;;;5013899;28;20032;-79
2021/06/15 10:27:56;;;;;;;7.28;3.67;;;26.80;91.30;;;;;;5013860;28;20026;-77
2021/06/15 10:30:36;;;;;;;19.58;4.43;;;26.70;91.60;;;;;;5013836;28;20028;-78
2021/06/15 10:33:10;;;;;;;6.30;3.58;;;26.60;91.90;;;;;;5012722;28;20435;-78
2021/06/15 10:35:47;;;;;;;14.25;3.42;;;26.70;91.70;;;;;;5012625;28;20037;-77
2021/06/15 10:38:39;;;;;;;17.95;4.05;;;26.80;91.70;;;;;;4995724;28;20021;-78
2021/06/15 10:41:06;;;;;;;12.27;4.10;;;26.80;91.90;;;;;;5013202;28;20044;-77
2021/06/15 10:43:35;;;;;;;12.20;4.13;;;26.70;91.90;;;;;;5013304;28;20022;-78
2021/06/15 10:46:34;;;;;;;8.55;3.42;;;26.70;92.20;;;;;;5012604;28;20120;-78
2021/06/15 10:49:03;;;;;;;7.60;3.40;;;26.60;92.50;;;;;;4993722;28;20103;-78
2021/06/15 10:51:42;;;;;;;16.75;3.80;;;26.50;92.50;;;;;;5008219;28;20033;-79
2021/06/15 10:54:28;;;;;;;11.52;4.10;;;26.40;92.80;;;;;;5012227;28;20022;-78
2021/06/15 10:57:17;;;;;;;11.88;4.00;;;26.40;93.00;;;;;;5012677;28;20116;-77
2021/06/15 11:00:08;;;;;;;10.85;4.10;;;26.40;93.00;;;;;;4995263;28;20034;-80
2021/06/15 11:02:35;;;;;;;7.53;3.55;;;26.30;93.00;;;;;;5012871;28;20418;-77
2021/06/15 11:05:37;;;;;;;8.75;3.42;;;26.30;93.20;;;;;;5012986;28;20430;-79
2021/06/15 11:08:21;;;;;;;15.15;4.40;;;26.20;93.30;;;;;;5011414;28;20044;-79
2021/06/15 11:11:07;;;;;;;12.20;4.10;;;26.20;93.70;;;;;;5011239;28;20033;-78
2021/06/15 11:13:40;;;;;;;16.38;3.80;;;26.20;93.80;;;;;;5000508;28;20108;-78
2021/06/15 11:16:06;;;;;;;14.50;3.72;;;26.20;94.00;;;;;;5012237;28;20386;-77
2021/06/15 11:18:32;;;;;;;7.88;3.40;;;26.10;94.30;;;;;;5011997;28;20029;-78
2021/06/15 11:21:14;;;;;;;6.95;3.35;;;26.30;94.20;;;;;;5012368;28;20026;-79
2021/06/15 11:23:40;;;;;;;8.38;4.22;;;26.30;94.20;;;;;;5012649;28;20032;-81
2021/06/15 11:26:14;;;;;;;8.60;3.75;;;26.30;94.10;;;;;;5012566;28;20022;-78
2021/06/15 11:28:44;;;;;;;10.90;4.25;;;26.40;94.20;;;;;;5012035;28;20018;-77
2021/06/15 11:31:22;;;;;;;11.07;3.10;;;26.40;94.50;;;;;;4994518;28;20037;-77
2021/06/15 11:34:26;;;;;;;8.18;3.53;;;26.40;94.50;;;;;;5012183;28;20022;-78
2021/06/15 11:36:54;;;;;;;8.57;3.70;;;26.30;94.40;;;;;;4940979;28;20055;-80
2021/06/15 11:39:23;;;;;;;12.65;3.70;;;26.30;94.60;;;;;;4936297;28;20171;-77
2021/06/15 11:42:16;;;;;;;12.40;3.63;;;26.30;94.60;;;;;;4984297;28;20034;-78
2021/06/15 11:44:59;;;;;;;13.77;3.95;;;26.30;94.60;;;;;;5012434;28;20025;-79
2021/06/15 11:47:25;;;;;;;13.93;4.20;;;26.30;94.70;;;;;;5012196;28;20026;-79
2021/06/15 11:50:18;;;;;;;5.28;3.50;;;26.30;94.90;;;;;;5010207;28;20386;-79
2021/06/15 11:52:53;;;;;;;6.30;3.53;;;26.40;94.20;;;;;;4990153;28;20033;-79
2021/06/15 11:55:25;;;;;;;9.85;4.05;;;26.30;94.40;;;;;;5010083;28;20073;-80
2021/06/15 11:57:55;;;;;;;;;;;26.40;94.60;;;;;;5011505;28;20054;-78
2021/06/15 12:00:22;;;;;;;11.57;4.40;;;26.50;94.60;;;;;;5011661;28;19905;-80
2021/06/15 12:02:47;;;;;;;10.07;4.18;;;26.50;94.70;;;;;;5011810;28;20018;-80
2021/06/15 12:05:15;;;;;;;11.82;4.10;;;26.50;95.30;;;;;;5011899;28;20400;-78
2021/06/15 12:07:50;;;;;;;6.47;3.00;;;26.50;94.60;;;;;;5012109;28;20339;-78
2021/06/15 12:10:16;;;;;;;9.52;3.80;;;26.40;94.60;;;;;;5011936;28;20025;-77
2021/06/15 12:13:00;;;;;;;7.55;3.30;;;26.30;94.90;;;;;;5013823;28;20490;-78
2021/06/15 12:15:45;;;;;;;5.45;3.53;;;26.20;94.70;;;;;;5011872;28;20037;-78
2021/06/15 12:18:29;;;;;;;8.15;3.72;;;26.00;95.10;;;;;;5012077;28;20030;-78
2021/06/15 12:20:59;;;;;;;13.95;3.58;;;26.00;94.90;;;;;;5012143;28;20026;-79
2021/06/15 12:23:38;;;;;;;11.40;3.42;;;26.00;95.00;;;;;;5012365;28;20041;-77
2021/06/15 12:26:16;;;;;;;8.15;3.50;;;26.10;95.10;;;;;;5001065;28;20104;-78
2021/06/15 12:28:47;;;;;;;9.32;3.85;;;26.00;94.70;;;;;;5011710;28;20042;-77
2021/06/15 12:31:16;;;;;;;10.38;3.15;;;25.90;94.80;;;;;;5009514;28;20398;-79
2021/06/15 12:33:44;;;;;;;8.25;3.67;;;26.00;95.30;;;;;;5011496;28;20065;-78
2021/06/15 12:36:13;;;;;;;12.15;4.50;;;26.00;95.30;;;;;;5011265;28;20088;-78
2021/06/15 12:38:41;;;;;;;6.80;3.40;;;26.10;95.30;;;;;;5011786;28;20033;-78
2021/06/15 12:41:09;;;;;;;7.90;3.80;;;26.00;94.90;;;;;;5011725;28;20018;-77
2021/06/15 12:43:36;;;;;;;6.68;3.15;;;26.10;94.80;;;;;;5012050;28;20026;-77
2021/06/15 12:46:07;;;;;;;11.52;3.38;;;26.10;94.80;;;;;;5011487;28;20112;-76
2021/06/15 12:48:33;;;;;;;7.28;3.33;;;26.20;94.90;;;;;;5002172;28;20537;-77
2021/06/15 12:51:10;;;;;;;7.60;3.28;;;26.10;94.60;;;;;;5010997;28;20631;-77
2021/06/15 12:53:38;;;;;;;7.88;2.95;;;26.10;94.70;;;;;;5011133;28;20364;-77
2021/06/15 12:56:27;;;;;;;8.57;3.47;;;26.10;94.30;;;;;;5011652;28;20035;-77
2021/06/15 12:58:55;;;;;;;7.50;3.22;;;26.20;94.20;;;;;;5010371;28;20026;-77